sensor_id;sensor_type;location;lat;lon;timestamp;pressure;altitude;pressure_sealevel;temperature;humidity
6204;BME280;3135;42.602;23.468;2023-01-16T00:00:59;92831.69;;;0.74;100.00
6204;BME280;3135;42.602;23.468;2023-01-16T00:03:25;92834.81;;;0.71;100.00
6204;BME280;3135;42.602;23.468;2023-01-16T00:05:50;92826.78;;;0.66;100.00
6204;BME280;3135;42.602;23.468;2023-01-16T00:08:16;92834.31;;;0.74;100.00
6204;BME280;3135;42.602;23.468;2023-01-16T00:10:43;92832.28;;;0.76;100.00
6204;BME280;3135;42.602;23.468;2023-01-16T00:13:10;92816.13;;;0.61;100.00
6204;BME280;3135;42.602;23.468;2023-01-16T00:15:36;92805.63;;;0.49;100.00
6204;BME280;3135;42.602;23.468;2023-01-16T00:18:01;92819.13;;;0.64;100.00
6204;BME280;3135;42.602;23.468;2023-01-16T00:20:27;92823.03;;;0.62;100.00
6204;BME280;3135;42.602;23.468;2023-01-16T00:22:52;92836.28;;;0.67;100.00
6204;BME280;3135;42.602;23.468;2023-01-16T00:25:18;92819.75;;;0.24;100.00
6204;BME280;3135;42.602;23.468;2023-01-16T00:27:43;92815.06;;;0.27;100.00
6204;BME280;3135;42.602;23.468;2023-01-16T00:30:09;92817.09;;;0.13;100.00
6204;BME280;3135;42.602;23.468;2023-01-16T00:32:35;92815.84;;;0.15;100.00
6204;BME280;3135;42.602;23.468;2023-01-16T00:35:01;92814.59;;;0.18;100.00
6204;BME280;3135;42.602;23.468;2023-01-16T00:37:26;92804.75;;;0.13;100.00
6204;BME280;3135;42.602;23.468;2023-01-16T00:39:52;92818.50;;;0.27;100.00
6204;BME280;3135;42.602;23.468;2023-01-16T00:42:18;92812.78;;;0.30;100.00
6204;BME280;3135;42.602;23.468;2023-01-16T00:44:43;92792.56;;;0.19;100.00
6204;BME280;3135;42.602;23.468;2023-01-16T00:47:09;92794.06;;;0.38;100.00
6204;BME280;3135;42.602;23.468;2023-01-16T00:49:34;92795.03;;;0.02;100.00
6204;BME280;3135;42.602;23.468;2023-01-16T00:52:00;92784.47;;;-0.10;100.00
6204;BME280;3135;42.602;23.468;2023-01-16T00:54:25;92756.16;;;-0.08;100.00
6204;BME280;3135;42.602;23.468;2023-01-16T00:56:51;92778.91;;;-0.02;100.00
6204;BME280;3135;42.602;23.468;2023-01-16T00:59:16;92753.63;;;-0.14;100.00
6204;BME280;3135;42.602;23.468;2023-01-16T01:01:42;92774.69;;;-0.03;100.00
6204;BME280;3135;42.602;23.468;2023-01-16T01:04:07;92769.44;;;0.09;100.00
6204;BME280;3135;42.602;23.468;2023-01-16T01:06:33;92766.00;;;0.09;100.00
6204;BME280;3135;42.602;23.468;2023-01-16T01:08:58;92767.72;;;0.03;100.00
6204;BME280;3135;42.602;23.468;2023-01-16T01:11:24;92768.19;;;0.12;100.00
6204;BME280;3135;42.602;23.468;2023-01-16T01:13:49;92766.25;;;-0.05;100.00
6204;BME280;3135;42.602;23.468;2023-01-16T01:16:15;92785.13;;;0.16;100.00
6204;BME280;3135;42.602;23.468;2023-01-16T01:18:41;92771.75;;;0.06;100.00
6204;BME280;3135;42.602;23.468;2023-01-16T01:21:07;92790.69;;;0.08;100.00
6204;BME280;3135;42.602;23.468;2023-01-16T01:23:33;92790.81;;;0.13;100.00
6204;BME280;3135;42.602;23.468;2023-01-16T01:25:58;92803.09;;;-0.11;100.00
6204;BME280;3135;42.602;23.468;2023-01-16T01:28:29;92771.34;;;-0.10;100.00
6204;BME280;3135;42.602;23.468;2023-01-16T01:30:55;92796.78;;;-0.22;100.00
6204;BME280;3135;42.602;23.468;2023-01-16T01:33:20;92790.59;;;-0.28;100.00
6204;BME280;3135;42.602;23.468;2023-01-16T01:35:45;92774.13;;;-0.35;100.00
6204;BME280;3135;42.602;23.468;2023-01-16T01:38:11;92786.06;;;-0.50;100.00
6204;BME280;3135;42.602;23.468;2023-01-16T01:40:36;92767.88;;;-0.52;100.00
6204;BME280;3135;42.602;23.468;2023-01-16T01:43:02;92768.91;;;-0.53;100.00
6204;BME280;3135;42.602;23.468;2023-01-16T01:45:31;92769.09;;;-0.36;100.00
6204;BME280;3135;42.602;23.468;2023-01-16T01:53:49;92738.69;;;-0.56;100.00
6204;BME280;3135;42.602;23.468;2023-01-16T01:56:49;92750.91;;;-0.49;100.00
6204;BME280;3135;42.602;23.468;2023-01-16T01:59:20;92735.28;;;-0.44;100.00
6204;BME280;3135;42.602;23.468;2023-01-16T02:01:48;92750.69;;;-0.48;100.00
6204;BME280;3135;42.602;23.468;2023-01-16T02:04:17;92745.00;;;-0.45;100.00
6204;BME280;3135;42.602;23.468;2023-01-16T02:06:50;92733.06;;;-0.59;100.00
6204;BME280;3135;42.602;23.468;2023-01-16T02:09:16;92728.69;;;-0.47;100.00
6204;BME280;3135;42.602;23.468;2023-01-16T02:14:14;92720.88;;;-0.54;100.00
6204;BME280;3135;42.602;23.468;2023-01-16T02:16:40;92727.50;;;-0.51;100.00
6204;BME280;3135;42.602;23.468;2023-01-16T02:22:44;92721.13;;;-0.43;100.00
6204;BME280;3135;42.602;23.468;2023-01-16T02:25:54;92720.81;;;-0.35;100.00
6204;BME280;3135;42.602;23.468;2023-01-16T02:36:48;92720.44;;;-0.50;100.00
6204;BME280;3135;42.602;23.468;2023-01-16T02:50:11;92705.78;;;-0.58;100.00
6204;BME280;3135;42.602;23.468;2023-01-16T02:55:53;92689.50;;;-0.48;100.00
6204;BME280;3135;42.602;23.468;2023-01-16T02:58:20;92687.16;;;-0.68;100.00
6204;BME280;3135;42.602;23.468;2023-01-16T03:00:51;92693.59;;;-0.53;100.00
6204;BME280;3135;42.602;23.468;2023-01-16T03:03:37;92696.41;;;-0.36;100.00
6204;BME280;3135;42.602;23.468;2023-01-16T03:06:30;92675.16;;;-0.34;100.00
6204;BME280;3135;42.602;23.468;2023-01-16T03:11:28;92664.19;;;-0.43;100.00
6204;BME280;3135;42.602;23.468;2023-01-16T03:14:15;92673.69;;;-0.42;100.00
6204;BME280;3135;42.602;23.468;2023-01-16T03:16:55;92672.16;;;-0.49;100.00
6204;BME280;3135;42.602;23.468;2023-01-16T03:19:41;92676.19;;;-0.47;100.00
6204;BME280;3135;42.602;23.468;2023-01-16T03:27:56;92650.84;;;-0.41;100.00
6204;BME280;3135;42.602;23.468;2023-01-16T03:30:37;92673.38;;;-0.22;100.00
6204;BME280;3135;42.602;23.468;2023-01-16T03:33:14;92665.13;;;-0.26;100.00
6204;BME280;3135;42.602;23.468;2023-01-16T03:35:59;92639.06;;;-0.50;100.00
6204;BME280;3135;42.602;23.468;2023-01-16T03:38:29;92628.47;;;-0.44;100.00
6204;BME280;3135;42.602;23.468;2023-01-16T03:40:58;92639.09;;;-0.27;100.00
6204;BME280;3135;42.602;23.468;2023-01-16T03:43:30;92640.59;;;-0.19;100.00
6204;BME280;3135;42.602;23.468;2023-01-16T03:48:41;92636.69;;;-0.40;100.00
6204;BME280;3135;42.602;23.468;2023-01-16T03:51:21;92622.66;;;-0.34;100.00
6204;BME280;3135;42.602;23.468;2023-01-16T03:54:01;92625.63;;;-0.42;100.00
6204;BME280;3135;42.602;23.468;2023-01-16T03:56:42;92617.88;;;-0.37;100.00
6204;BME280;3135;42.602;23.468;2023-01-16T03:59:09;92614.06;;;-0.65;100.00
6204;BME280;3135;42.602;23.468;2023-01-16T04:01:49;92603.47;;;-0.46;100.00
6204;BME280;3135;42.602;23.468;2023-01-16T04:04:34;92577.78;;;-0.56;100.00
6204;BME280;3135;42.602;23.468;2023-01-16T04:07:17;92609.63;;;-0.29;100.00
6204;BME280;3135;42.602;23.468;2023-01-16T04:10:06;92597.16;;;-0.57;100.00
6204;BME280;3135;42.602;23.468;2023-01-16T04:12:36;92589.97;;;-0.62;100.00
6204;BME280;3135;42.602;23.468;2023-01-16T04:15:08;92596.47;;;-0.64;100.00
6204;BME280;3135;42.602;23.468;2023-01-16T04:17:35;92590.44;;;-0.65;100.00
6204;BME280;3135;42.602;23.468;2023-01-16T04:20:01;92611.00;;;-0.38;100.00
6204;BME280;3135;42.602;23.468;2023-01-16T04:22:28;92603.34;;;-0.40;100.00
6204;BME280;3135;42.602;23.468;2023-01-16T04:24:56;92619.00;;;-0.33;100.00
6204;BME280;3135;42.602;23.468;2023-01-16T04:27:22;92600.06;;;-0.35;100.00
6204;BME280;3135;42.602;23.468;2023-01-16T04:29:48;92592.88;;;-0.52;100.00
6204;BME280;3135;42.602;23.468;2023-01-16T04:32:14;92612.94;;;-0.45;100.00
6204;BME280;3135;42.602;23.468;2023-01-16T04:34:40;92610.69;;;-0.42;100.00
6204;BME280;3135;42.602;23.468;2023-01-16T04:37:05;92603.13;;;-0.50;100.00
6204;BME280;3135;42.602;23.468;2023-01-16T04:39:31;92592.06;;;-0.40;100.00
6204;BME280;3135;42.602;23.468;2023-01-16T04:41:56;92599.66;;;-0.74;100.00
6204;BME280;3135;42.602;23.468;2023-01-16T04:44:23;92586.97;;;-0.77;100.00
6204;BME280;3135;42.602;23.468;2023-01-16T04:46:48;92594.56;;;-0.45;100.00
6204;BME280;3135;42.602;23.468;2023-01-16T04:49:14;92587.69;;;-0.58;100.00
6204;BME280;3135;42.602;23.468;2023-01-16T04:51:39;92581.78;;;-0.54;100.00
6204;BME280;3135;42.602;23.468;2023-01-16T04:54:06;92595.13;;;-0.55;100.00
6204;BME280;3135;42.602;23.468;2023-01-16T04:56:32;92601.72;;;-0.53;100.00
6204;BME280;3135;42.602;23.468;2023-01-16T04:58:58;92578.13;;;-0.53;100.00
6204;BME280;3135;42.602;23.468;2023-01-16T05:01:24;92580.53;;;-0.39;100.00
6204;BME280;3135;42.602;23.468;2023-01-16T05:03:50;92597.53;;;-0.54;100.00
6204;BME280;3135;42.602;23.468;2023-01-16T05:06:16;92582.22;;;-0.57;100.00
6204;BME280;3135;42.602;23.468;2023-01-16T05:08:41;92590.66;;;-0.66;100.00
6204;BME280;3135;42.602;23.468;2023-01-16T05:11:07;92572.31;;;-0.55;100.00
6204;BME280;3135;42.602;23.468;2023-01-16T05:13:33;92573.72;;;-0.94;100.00
6204;BME280;3135;42.602;23.468;2023-01-16T05:15:58;92568.38;;;-0.87;100.00
6204;BME280;3135;42.602;23.468;2023-01-16T05:18:25;92573.97;;;-0.72;100.00
6204;BME280;3135;42.602;23.468;2023-01-16T05:20:51;92577.34;;;-1.07;100.00
6204;BME280;3135;42.602;23.468;2023-01-16T05:23:16;92559.91;;;-1.01;100.00
6204;BME280;3135;42.602;23.468;2023-01-16T05:25:42;92562.47;;;-0.71;100.00
6204;BME280;3135;42.602;23.468;2023-01-16T05:28:08;92548.19;;;-0.98;100.00
6204;BME280;3135;42.602;23.468;2023-01-16T05:30:34;92563.59;;;-0.67;100.00
6204;BME280;3135;42.602;23.468;2023-01-16T05:32:59;92557.38;;;-1.08;100.00
6204;BME280;3135;42.602;23.468;2023-01-16T05:35:25;92550.91;;;-0.93;100.00
6204;BME280;3135;42.602;23.468;2023-01-16T05:37:50;92545.44;;;-0.80;100.00
6204;BME280;3135;42.602;23.468;2023-01-16T05:40:16;92538.28;;;-0.85;100.00
6204;BME280;3135;42.602;23.468;2023-01-16T05:42:43;92531.41;;;-0.86;100.00
6204;BME280;3135;42.602;23.468;2023-01-16T05:45:09;92542.84;;;-0.68;100.00
6204;BME280;3135;42.602;23.468;2023-01-16T05:47:34;92550.13;;;-0.82;100.00
6204;BME280;3135;42.602;23.468;2023-01-16T05:50:00;92541.59;;;-0.89;100.00
6204;BME280;3135;42.602;23.468;2023-01-16T05:52:26;92548.06;;;-0.80;100.00
6204;BME280;3135;42.602;23.468;2023-01-16T05:54:52;92545.91;;;-0.83;100.00
6204;BME280;3135;42.602;23.468;2023-01-16T05:57:18;92542.63;;;-0.67;100.00
6204;BME280;3135;42.602;23.468;2023-01-16T05:59:48;92550.84;;;-0.75;100.00
6204;BME280;3135;42.602;23.468;2023-01-16T06:02:14;92531.91;;;-1.19;100.00
6204;BME280;3135;42.602;23.468;2023-01-16T06:04:39;92541.00;;;-0.91;100.00
6204;BME280;3135;42.602;23.468;2023-01-16T06:07:04;92527.75;;;-0.96;100.00
6204;BME280;3135;42.602;23.468;2023-01-16T06:09:30;92536.53;;;-1.02;100.00
6204;BME280;3135;42.602;23.468;2023-01-16T06:11:55;92529.34;;;-0.95;100.00
6204;BME280;3135;42.602;23.468;2023-01-16T06:14:21;92543.06;;;-0.93;100.00
6204;BME280;3135;42.602;23.468;2023-01-16T06:16:46;92536.34;;;-0.89;100.00
6204;BME280;3135;42.602;23.468;2023-01-16T06:19:11;92547.16;;;-0.86;100.00
6204;BME280;3135;42.602;23.468;2023-01-16T06:21:37;92535.19;;;-0.93;100.00
6204;BME280;3135;42.602;23.468;2023-01-16T06:24:02;92538.69;;;-0.99;100.00
6204;BME280;3135;42.602;23.468;2023-01-16T06:26:28;92516.91;;;-1.12;100.00
6204;BME280;3135;42.602;23.468;2023-01-16T06:28:53;92520.44;;;-1.06;100.00
6204;BME280;3135;42.602;23.468;2023-01-16T06:31:21;92516.44;;;-1.09;100.00
6204;BME280;3135;42.602;23.468;2023-01-16T06:33:47;92522.06;;;-0.82;100.00
6204;BME280;3135;42.602;23.468;2023-01-16T06:36:12;92506.91;;;-0.91;100.00
6204;BME280;3135;42.602;23.468;2023-01-16T06:38:37;92527.31;;;-0.82;100.00
6204;BME280;3135;42.602;23.468;2023-01-16T06:41:03;92520.50;;;-0.59;100.00
6204;BME280;3135;42.602;23.468;2023-01-16T06:43:28;92520.63;;;-0.42;100.00
6204;BME280;3135;42.602;23.468;2023-01-16T06:45:54;92542.75;;;-0.38;100.00
6204;BME280;3135;42.602;23.468;2023-01-16T06:48:20;92562.84;;;-0.32;100.00
6204;BME280;3135;42.602;23.468;2023-01-16T06:50:46;92556.44;;;-0.48;100.00
6204;BME280;3135;42.602;23.468;2023-01-16T06:53:11;92565.59;;;-0.27;100.00
6204;BME280;3135;42.602;23.468;2023-01-16T06:55:37;92540.59;;;-0.18;100.00
6204;BME280;3135;42.602;23.468;2023-01-16T06:58:03;92559.75;;;0.06;100.00
6204;BME280;3135;42.602;23.468;2023-01-16T07:00:28;92537.69;;;0.19;100.00
6204;BME280;3135;42.602;23.468;2023-01-16T07:02:55;92533.69;;;0.05;100.00
6204;BME280;3135;42.602;23.468;2023-01-16T07:05:23;92518.19;;;-0.09;100.00
6204;BME280;3135;42.602;23.468;2023-01-16T07:07:49;92536.44;;;0.10;100.00
6204;BME280;3135;42.602;23.468;2023-01-16T07:10:14;92535.16;;;0.24;100.00
6204;BME280;3135;42.602;23.468;2023-01-16T07:12:40;92540.72;;;0.28;100.00
6204;BME280;3135;42.602;23.468;2023-01-16T07:15:07;92526.53;;;0.40;100.00
6204;BME280;3135;42.602;23.468;2023-01-16T07:17:51;92528.09;;;0.53;100.00
6204;BME280;3135;42.602;23.468;2023-01-16T07:20:35;92517.91;;;0.57;100.00
6204;BME280;3135;42.602;23.468;2023-01-16T07:23:23;92529.41;;;0.67;100.00
6204;BME280;3135;42.602;23.468;2023-01-16T07:25:49;92513.00;;;0.77;100.00
6204;BME280;3135;42.602;23.468;2023-01-16T07:28:18;92515.63;;;0.77;100.00
6204;BME280;3135;42.602;23.468;2023-01-16T07:30:44;92526.63;;;0.74;100.00
6204;BME280;3135;42.602;23.468;2023-01-16T07:33:11;92530.09;;;0.91;100.00
6204;BME280;3135;42.602;23.468;2023-01-16T07:35:36;92494.84;;;0.92;100.00
6204;BME280;3135;42.602;23.468;2023-01-16T07:38:02;92520.31;;;1.20;100.00
6204;BME280;3135;42.602;23.468;2023-01-16T07:40:28;92513.13;;;1.16;100.00
6204;BME280;3135;42.602;23.468;2023-01-16T07:42:53;92518.00;;;1.24;100.00
6204;BME280;3135;42.602;23.468;2023-01-16T07:45:19;92531.72;;;1.26;100.00
6204;BME280;3135;42.602;23.468;2023-01-16T07:47:44;92515.13;;;1.25;100.00
6204;BME280;3135;42.602;23.468;2023-01-16T07:50:10;92515.13;;;1.42;100.00
6204;BME280;3135;42.602;23.468;2023-01-16T07:52:35;92515.94;;;1.43;100.00
6204;BME280;3135;42.602;23.468;2023-01-16T07:55:01;92508.88;;;0.98;100.00
6204;BME280;3135;42.602;23.468;2023-01-16T07:57:26;92509.38;;;1.12;100.00
6204;BME280;3135;42.602;23.468;2023-01-16T07:59:52;92514.09;;;1.43;100.00
6204;BME280;3135;42.602;23.468;2023-01-16T08:02:18;92507.13;;;1.54;100.00
6204;BME280;3135;42.602;23.468;2023-01-16T08:04:43;92492.66;;;1.18;100.00
6204;BME280;3135;42.602;23.468;2023-01-16T08:07:09;92492.16;;;1.21;100.00
6204;BME280;3135;42.602;23.468;2023-01-16T08:09:34;92475.97;;;1.29;100.00
6204;BME280;3135;42.602;23.468;2023-01-16T08:11:59;92472.44;;;1.40;100.00
6204;BME280;3135;42.602;23.468;2023-01-16T08:14:25;92477.94;;;1.56;100.00
6204;BME280;3135;42.602;23.468;2023-01-16T08:16:50;92463.03;;;1.83;100.00
6204;BME280;3135;42.602;23.468;2023-01-16T08:19:16;92463.56;;;1.63;100.00
6204;BME280;3135;42.602;23.468;2023-01-16T08:21:41;92480.47;;;1.50;100.00
6204;BME280;3135;42.602;23.468;2023-01-16T08:24:07;92470.38;;;1.42;100.00
6204;BME280;3135;42.602;23.468;2023-01-16T08:26:32;92475.22;;;1.50;100.00
6204;BME280;3135;42.602;23.468;2023-01-16T08:28:58;92472.97;;;1.76;100.00
6204;BME280;3135;42.602;23.468;2023-01-16T08:31:26;92461.56;;;1.70;100.00
6204;BME280;3135;42.602;23.468;2023-01-16T08:33:51;92488.91;;;1.86;100.00
6204;BME280;3135;42.602;23.468;2023-01-16T08:36:17;92480.84;;;1.76;100.00
6204;BME280;3135;42.602;23.468;2023-01-16T08:38:45;92485.34;;;1.75;100.00
6204;BME280;3135;42.602;23.468;2023-01-16T08:41:11;92476.19;;;1.44;100.00
6204;BME280;3135;42.602;23.468;2023-01-16T08:43:55;92489.03;;;1.58;100.00
6204;BME280;3135;42.602;23.468;2023-01-16T08:46:39;92465.81;;;1.54;100.00
6204;BME280;3135;42.602;23.468;2023-01-16T08:49:24;92473.00;;;1.42;100.00
6204;BME280;3135;42.602;23.468;2023-01-16T08:52:09;92467.69;;;1.76;100.00
6204;BME280;3135;42.602;23.468;2023-01-16T08:54:34;92449.63;;;1.85;100.00
6204;BME280;3135;42.602;23.468;2023-01-16T08:57:00;92439.88;;;1.85;100.00
6204;BME280;3135;42.602;23.468;2023-01-16T08:59:25;92431.91;;;1.80;100.00
6204;BME280;3135;42.602;23.468;2023-01-16T09:01:51;92443.06;;;1.87;100.00
6204;BME280;3135;42.602;23.468;2023-01-16T09:04:16;92430.25;;;1.96;100.00
6204;BME280;3135;42.602;23.468;2023-01-16T09:06:42;92426.72;;;2.07;100.00
6204;BME280;3135;42.602;23.468;2023-01-16T09:09:07;92427.00;;;2.11;100.00
6204;BME280;3135;42.602;23.468;2023-01-16T09:11:34;92430.72;;;2.37;100.00
6204;BME280;3135;42.602;23.468;2023-01-16T09:14:18;92415.19;;;2.13;100.00
6204;BME280;3135;42.602;23.468;2023-01-16T09:16:44;92421.81;;;2.43;100.00
6204;BME280;3135;42.602;23.468;2023-01-16T09:19:10;92423.19;;;2.23;100.00
6204;BME280;3135;42.602;23.468;2023-01-16T09:21:35;92407.47;;;2.34;100.00
6204;BME280;3135;42.602;23.468;2023-01-16T09:24:01;92411.09;;;2.49;100.00
6204;BME280;3135;42.602;23.468;2023-01-16T09:26:28;92414.41;;;2.67;100.00
6204;BME280;3135;42.602;23.468;2023-01-16T09:28:53;92419.38;;;2.36;100.00
6204;BME280;3135;42.602;23.468;2023-01-16T09:31:19;92419.81;;;2.28;100.00
6204;BME280;3135;42.602;23.468;2023-01-16T09:33:45;92404.25;;;2.26;100.00
6204;BME280;3135;42.602;23.468;2023-01-16T09:36:12;92410.44;;;2.37;100.00
6204;BME280;3135;42.602;23.468;2023-01-16T09:38:37;92394.22;;;2.50;100.00
6204;BME280;3135;42.602;23.468;2023-01-16T09:41:03;92390.13;;;2.65;100.00
6204;BME280;3135;42.602;23.468;2023-01-16T09:43:37;92392.59;;;2.76;100.00
6204;BME280;3135;42.602;23.468;2023-01-16T09:46:19;92400.38;;;2.93;100.00
6204;BME280;3135;42.602;23.468;2023-01-16T09:51:24;92389.44;;;3.12;100.00
6204;BME280;3135;42.602;23.468;2023-01-16T09:53:58;92390.00;;;3.19;100.00
6204;BME280;3135;42.602;23.468;2023-01-16T09:56:47;92380.47;;;3.13;100.00
6204;BME280;3135;42.602;23.468;2023-01-16T10:02:20;92390.63;;;3.31;100.00
6204;BME280;3135;42.602;23.468;2023-01-16T10:04:47;92354.41;;;3.26;100.00
6204;BME280;3135;42.602;23.468;2023-01-16T10:12:16;92342.69;;;3.07;100.00
6204;BME280;3135;42.602;23.468;2023-01-16T10:23:21;92350.53;;;3.39;100.00
6204;BME280;3135;42.602;23.468;2023-01-16T10:26:13;92346.97;;;3.66;100.00
6204;BME280;3135;42.602;23.468;2023-01-16T10:36:28;92333.63;;;3.40;100.00
6204;BME280;3135;42.602;23.468;2023-01-16T10:38:57;92326.53;;;3.46;100.00
6204;BME280;3135;42.602;23.468;2023-01-16T10:41:33;92309.88;;;3.45;100.00
6204;BME280;3135;42.602;23.468;2023-01-16T10:44:29;92319.19;;;3.58;100.00
6204;BME280;3135;42.602;23.468;2023-01-16T10:47:15;92317.94;;;3.81;100.00
6204;BME280;3135;42.602;23.468;2023-01-16T10:50:00;92304.34;;;3.52;100.00
6204;BME280;3135;42.602;23.468;2023-01-16T10:52:26;92302.75;;;3.41;100.00
6204;BME280;3135;42.602;23.468;2023-01-16T10:54:54;92288.19;;;3.38;100.00
6204;BME280;3135;42.602;23.468;2023-01-16T10:57:21;92293.63;;;3.74;100.00
6204;BME280;3135;42.602;23.468;2023-01-16T10:59:49;92270.38;;;3.81;100.00
6204;BME280;3135;42.602;23.468;2023-01-16T11:02:18;92274.34;;;3.78;100.00
6204;BME280;3135;42.602;23.468;2023-01-16T11:04:48;92268.50;;;3.71;100.00
6204;BME280;3135;42.602;23.468;2023-01-16T11:07:19;92252.88;;;3.59;100.00
6204;BME280;3135;42.602;23.468;2023-01-16T11:09:46;92250.78;;;3.67;100.00
6204;BME280;3135;42.602;23.468;2023-01-16T11:12:19;92248.44;;;3.75;100.00
6204;BME280;3135;42.602;23.468;2023-01-16T11:15:13;92239.69;;;3.65;100.00
6204;BME280;3135;42.602;23.468;2023-01-16T11:17:57;92243.41;;;3.74;100.00
6204;BME280;3135;42.602;23.468;2023-01-16T11:20:41;92237.84;;;3.70;100.00
6204;BME280;3135;42.602;23.468;2023-01-16T11:23:22;92245.06;;;3.95;100.00
6204;BME280;3135;42.602;23.468;2023-01-16T11:25:49;92222.84;;;4.01;100.00
6204;BME280;3135;42.602;23.468;2023-01-16T11:28:28;92221.56;;;4.19;100.00
6204;BME280;3135;42.602;23.468;2023-01-16T11:31:06;92232.38;;;4.07;100.00
6204;BME280;3135;42.602;23.468;2023-01-16T11:33:40;92227.06;;;3.92;100.00
6204;BME280;3135;42.602;23.468;2023-01-16T11:36:07;92209.59;;;3.76;100.00
6204;BME280;3135;42.602;23.468;2023-01-16T11:38:35;92198.75;;;3.67;100.00
6204;BME280;3135;42.602;23.468;2023-01-16T11:41:04;92204.06;;;3.82;100.00
6204;BME280;3135;42.602;23.468;2023-01-16T11:43:32;92213.06;;;3.92;100.00
6204;BME280;3135;42.602;23.468;2023-01-16T11:46:30;92227.84;;;3.82;100.00
6204;BME280;3135;42.602;23.468;2023-01-16T11:49:14;92207.97;;;3.54;100.00
6204;BME280;3135;42.602;23.468;2023-01-16T11:51:39;92208.50;;;3.62;100.00
6204;BME280;3135;42.602;23.468;2023-01-16T11:54:13;92206.13;;;3.70;100.00
6204;BME280;3135;42.602;23.468;2023-01-16T12:00:04;92195.28;;;3.67;100.00
6204;BME280;3135;42.602;23.468;2023-01-16T12:36:15;92133.19;;;4.46;100.00
6204;BME280;3135;42.602;23.468;2023-01-16T12:39:15;92118.13;;;4.36;100.00
6204;BME280;3135;42.602;23.468;2023-01-16T12:53:22;92105.44;;;4.33;100.00
6204;BME280;3135;42.602;23.468;2023-01-16T12:58:18;92097.50;;;4.23;100.00
6204;BME280;3135;42.602;23.468;2023-01-16T13:03:15;92097.00;;;4.16;100.00
6204;BME280;3135;42.602;23.468;2023-01-16T13:05:43;92109.16;;;4.22;100.00
6204;BME280;3135;42.602;23.468;2023-01-16T13:08:22;92105.19;;;4.29;100.00
6204;BME280;3135;42.602;23.468;2023-01-16T13:10:56;92101.50;;;3.95;100.00
6204;BME280;3135;42.602;23.468;2023-01-16T13:13:50;92090.66;;;3.81;100.00
6204;BME280;3135;42.602;23.468;2023-01-16T13:16:27;92080.63;;;3.93;100.00
6204;BME280;3135;42.602;23.468;2023-01-16T13:22:11;92096.50;;;3.78;100.00
6204;BME280;3135;42.602;23.468;2023-01-16T13:27:18;92073.47;;;3.32;100.00
6204;BME280;3135;42.602;23.468;2023-01-16T13:30:01;92086.66;;;3.22;100.00
6204;BME280;3135;42.602;23.468;2023-01-16T13:32:40;92088.00;;;3.25;100.00
6204;BME280;3135;42.602;23.468;2023-01-16T13:35:27;92073.72;;;3.11;100.00
6204;BME280;3135;42.602;23.468;2023-01-16T13:40:53;92057.06;;;3.15;100.00
6204;BME280;3135;42.602;23.468;2023-01-16T13:43:32;92035.16;;;2.94;100.00
6204;BME280;3135;42.602;23.468;2023-01-16T13:46:19;92043.34;;;2.93;100.00
6204;BME280;3135;42.602;23.468;2023-01-16T13:48:51;92043.56;;;2.86;100.00
6204;BME280;3135;42.602;23.468;2023-01-16T13:51:18;92038.25;;;2.76;100.00
6204;BME280;3135;42.602;23.468;2023-01-16T13:53:50;92029.56;;;2.80;100.00
6204;BME280;3135;42.602;23.468;2023-01-16T13:56:20;92023.16;;;2.46;100.00
6204;BME280;3135;42.602;23.468;2023-01-16T13:58:49;92036.06;;;2.47;100.00
6204;BME280;3135;42.602;23.468;2023-01-16T14:01:55;92015.72;;;2.33;100.00
6204;BME280;3135;42.602;23.468;2023-01-16T14:06:54;92000.69;;;2.38;100.00
6204;BME280;3135;42.602;23.468;2023-01-16T14:13:23;92024.47;;;2.48;100.00
6204;BME280;3135;42.602;23.468;2023-01-16T14:15:22;92031.03;;;2.36;100.00
6204;BME280;3135;42.602;23.468;2023-01-16T14:18:18;92033.91;;;2.34;100.00
6204;BME280;3135;42.602;23.468;2023-01-16T14:20:50;92040.25;;;2.43;100.00
6204;BME280;3135;42.602;23.468;2023-01-16T14:26:04;92032.84;;;2.35;100.00
6204;BME280;3135;42.602;23.468;2023-01-16T14:28:32;92043.09;;;2.26;100.00
6204;BME280;3135;42.602;23.468;2023-01-16T14:30:59;92032.44;;;2.06;100.00
6204;BME280;3135;42.602;23.468;2023-01-16T14:33:26;92062.59;;;2.30;100.00
6204;BME280;3135;42.602;23.468;2023-01-16T14:35:54;92051.00;;;2.21;100.00
6204;BME280;3135;42.602;23.468;2023-01-16T14:38:22;92053.88;;;2.20;100.00
6204;BME280;3135;42.602;23.468;2023-01-16T14:41:02;92041.56;;;2.36;100.00
6204;BME280;3135;42.602;23.468;2023-01-16T14:55:52;92037.53;;;2.18;100.00
6204;BME280;3135;42.602;23.468;2023-01-16T14:58:50;92037.53;;;2.23;100.00
6204;BME280;3135;42.602;23.468;2023-01-16T15:01:23;92041.28;;;2.32;100.00
6204;BME280;3135;42.602;23.468;2023-01-16T15:04:12;92017.22;;;2.18;100.00
6204;BME280;3135;42.602;23.468;2023-01-16T15:06:40;92033.34;;;2.27;100.00
6204;BME280;3135;42.602;23.468;2023-01-16T15:09:13;92035.56;;;2.50;100.00
6204;BME280;3135;42.602;23.468;2023-01-16T15:12:02;92027.41;;;2.57;100.00
6204;BME280;3135;42.602;23.468;2023-01-16T15:14:29;92015.53;;;2.54;100.00
6204;BME280;3135;42.602;23.468;2023-01-16T15:17:11;92032.72;;;2.72;100.00
6204;BME280;3135;42.602;23.468;2023-01-16T15:20:15;92039.00;;;2.56;100.00
6204;BME280;3135;42.602;23.468;2023-01-16T15:23:01;92012.03;;;2.39;100.00
6204;BME280;3135;42.602;23.468;2023-01-16T15:28:18;92016.72;;;2.21;100.00
6204;BME280;3135;42.602;23.468;2023-01-16T15:30:47;92001.47;;;2.34;100.00
6204;BME280;3135;42.602;23.468;2023-01-16T15:33:24;92016.47;;;2.23;100.00
6204;BME280;3135;42.602;23.468;2023-01-16T15:36:23;92020.38;;;2.20;100.00
6204;BME280;3135;42.602;23.468;2023-01-16T15:38:56;92034.91;;;2.23;100.00
6204;BME280;3135;42.602;23.468;2023-01-16T15:41:29;92036.69;;;2.07;100.00
6204;BME280;3135;42.602;23.468;2023-01-16T15:44:17;92017.66;;;2.00;100.00
6204;BME280;3135;42.602;23.468;2023-01-16T15:50:16;92024.13;;;1.77;100.00
6204;BME280;3135;42.602;23.468;2023-01-16T15:52:46;92019.84;;;1.66;100.00
6204;BME280;3135;42.602;23.468;2023-01-16T15:55:18;92015.09;;;1.68;100.00
6204;BME280;3135;42.602;23.468;2023-01-16T15:57:48;92022.53;;;1.76;100.00
6204;BME280;3135;42.602;23.468;2023-01-16T16:03:15;92020.47;;;1.83;100.00
6204;BME280;3135;42.602;23.468;2023-01-16T16:05:47;92040.66;;;1.67;100.00
6204;BME280;3135;42.602;23.468;2023-01-16T16:08:32;92030.38;;;1.66;100.00
6204;BME280;3135;42.602;23.468;2023-01-16T16:11:00;92023.81;;;1.73;100.00